Terminal Aerodrome Forecast
Issued by NWS

Home | Current Version | Previous Version | Text Only | Print | Product List | Glossary On
Versions: 1 2 3 4 5 6 7 8 9 10 11 12 13 14 15 16 17 18 19 20
000
FTUS42 KTAE 072149 AAA
TAFECP
TAF AMD
KECP 072149Z 0722/0818 22008KT P6SM VCTS SCT040CB
     FM080100 22004KT P6SM SCT100
     FM081500 31005KT P6SM SCT040=

USA.gov is the U.S. government's official web portal to all federal, state and local government web resources and services.